Huvudsida
METAR-TAF:

METAR-TAF

Flygplatser :

Bíldudalurs flygplats

Bíldudalur, Island

latitud: 65-38-30N, longitud: 23-32-45W, höjd: 8 m

Aktuellt väderrapport

Denna rapport gjordes för 1 timme och 55 minuter sedan, klockan 17:00 UTC
Vind 7 kt från nord/nordost
Temperatur 13°C
Fuktighet 67%
Tryck 1015 hPa
Sikt 10 km eller mer
Brutna moln på en höjd av 4000 ft
torrdis,

METAR: BIBD 141700Z 03007KT 9999 HZ BKN040 13/07 Q1015

Tid: 18:55 (18:55 UTC)

Väderprognos

Denna rapport gjordes för 2 timmar och 49 minuter sedan, klockan 16:06 UTC
Prognos gäller från 14 kl. 17 UTC till 14 kl. 19 UTC
Vind 5 kt från nord
Sikt 10 km eller mer
Mulet på en höjd av 3000 ft

TAF: BIBD 141606Z 1417/1419 36005KT 9999 OVC030

Aktuella väderrapporter och prognoser från 4000 flygplatser (METAR- och TAF-rapporter).

De tillgängliga stationerna syns som gula och röda prickar på kartan.

För musen över prickarna för att se namnen på stationerna.

Klicka sedan för att få väderrapporter och prognoser.

För att ändra kartan: Klicka på de gröna knapparna med ett svart kors på för att zooma in; den gröna knappen med ett streck på för att zooma ut; eller på de gröna pilarna för angränsande kartor.


METAR-TAF: